Quick Links (Output Below):   Max & Min Temps   /   Climate Reports   /   Zone Forecasts
River Forecasts   /   Forestry Forecasts   /   Aviation Forecasts   /   Radars   /   Features

Terminal Aerodrome Forecast (Pine Bluff)

Pick a Site:
Arkadelphia | El Dorado | Fayetteville | Fort Smith | Harrison | Highfill | Hot Springs | Jonesboro
Little Rock | Monticello | Mountain Home | Pine Bluff | Texarkana
 Forecast 

KPBF 302200Z 3022/3118 20006KT P6SM VCTS SCT025 BKN050CB BKN250
      TEMPO 3022/3101 VRB15G35KT 2SM TSRA BR BKN030CB OVC100
     FM310100 23004KT P6SM VCSH SCT040 SCT100 BKN250
     FM310900 23002KT P6SM FEW008 SCT015
      TEMPO 3111/3114 5SM BR BKN015
     FM311500 21005KT P6SM SCT020 BKN035=


 Latest METARs (Observations) 
How to Decode METARs
22Z KPBF 302153Z AUTO 10SM CLR 33/23 A2996 RMK AO2 SLP143
         T03280228
         
21Z KPBF 302053Z AUTO VRB04KT 10SM CLR 33/23 A2995 RMK AO2 SLP140
         T03280228 56021
         
20Z KPBF 301953Z AUTO 26006KT 10SM CLR 32/23 A2997 RMK AO2 SLP145
         T03220228
         
19Z KPBF 301853Z AUTO 29006KT 10SM BKN065 BKN080 31/23 A2999 RMK AO2
         SLP154 T03110228
         
18Z KPBF 301753Z AUTO VRB06KT 10SM FEW047 FEW060 BKN075 31/22 A3002
         RMK AO2 SLP161 T03110222 10311 20217 58001
         
17Z KPBF 301653Z AUTO VRB05KT 10SM CLR 31/22 A3002 RMK AO2 SLP163
         T03060217
         
16Z KPBF 301553Z AUTO 26007KT 10SM CLR 29/21 A3002 RMK AO2 SLP164
         T02890211
         
15Z KPBF 301453Z AUTO 26006KT 10SM CLR 28/22 A3002 RMK AO2 SLP163
         T02780217 50005
         
14Z KPBF 301353Z AUTO 22004KT 10SM CLR 25/22 A3002 RMK AO2 SLP164
         T02500222
         
13Z KPBF 301253Z AUTO 25003KT 10SM CLR 23/22 A3001 RMK AO2 SLP159
         T02280217
         
***** Today's Observations (Above) *****


Back to Main Page
http://www.srh.noaa.gov/lzk/qfcst.php

USA.gov is the U.S. government's official web portal to all federal, state and local government web resources and services.